KRWI/RWI METAR and TAF weather

Enter ICAO airport designator
Station Type Date Time Source
KRWI METAR 2019/04/18 09:53 UTC NOAA

KRWI 180953Z AUTO 18004KT 10SM CLR 14/11 A3002 RMK AO2 SLP165 T01440111 $


Station Type Date Time Source
KRWI Decoded METAR 2019/04/18 09:53 UTC NOAA

ROCKY MOUNT-WILSON AIRPORT, NC, United States (KRWI) 35-51N 077-54W 47M
Apr 18, 2019 - 05:53 AM EDT / 2019.04.18 0953 UTC
Wind: from the S (180 degrees) at 5 MPH (4 KT):0
Visibility: 10 mile(s):0
Sky conditions: clear
Temperature: 57.9 F (14.4 C)
Dew Point: 52.0 F (11.1 C)
Relative Humidity: 80%
Pressure (altimeter): 30.02 in. Hg (1016 hPa)
ob: KRWI 180953Z AUTO 18004KT 10SM CLR 14/11 A3002 RMK AO2 SLP165 T01440111
cycle: 10

Station Type Date Time Source
KRWI TAF 2019/04/18 06:22 UTC NOAA

TAF KRWI 180520Z 1806/1906 VRB05KT P6SM BKN200
FM181300 20008G14KT P6SM SCT200
FM182000 19014G22KT P6SM BKN035

Example: see airport list